Shipston-on-Stour, United Kingdom
Current Conditions -  °F | °C
As of 8:20 AM on Tuesday 21 Oct 2014 (Local Time) from EGTK Reporting Station
Rain Showers Rain Showers  
Wind Chill: 55°   Ceiling: Unl
Heat Index: 55°   Visibility: 6mi
Dew Point: 52°   Wind: 18mph
Humidity: 88%   Direction: 260°W
Pressure: 29.53"   Gusts: 31mph
Location:  52.06°N, 1.63°W
Report Text: EGTK 210720Z 26016G27KT 9999 VCSH SCT025 SCT029TCU 13/11 Q1000 RERA
Loading
Personal Weather Stations






























Interactive Weather Map
Tropical Storm Tracking
New forecast layout! Learn more

10-Day Weather Forecast

Advertisements
Track Severe Weather on mobile